Terminal Aerodrome Forecast
Issued by NWS

Current Version | Previous Version | Text Only | Print | Product List | Glossary Off
Versions: 1 2 3 4 5 6 7 8 9 10 11 12 13

499
FTUS44 KSJT 301140
TAFBBD
TAF
KBBD 301140Z 3012/3112 06006KT P6SM BKN015
     FM301700 06008KT P6SM SCT025 BKN040
     FM301900 07007KT P6SM VCSH BKN050
     FM310100 06006KT P6SM BKN250
      AMD NOT SKED=

USA.gov is the U.S. government's official web portal to all federal, state and local government web resources and services.